createdAt,value
2023-01-23T00:01:36.035Z,2.22
2023-01-23T00:04:05.313Z,2.28
2023-01-23T00:06:33.341Z,2.35
2023-01-23T00:09:01.630Z,2.28
2023-01-23T00:11:30.465Z,2.40
2023-01-23T00:14:00.308Z,2.33
2023-01-23T00:16:31.699Z,2.44
2023-01-23T00:19:00.283Z,2.40
2023-01-23T00:21:30.259Z,2.42
2023-01-23T00:24:00.368Z,2.45
2023-01-23T00:26:32.909Z,2.43
2023-01-23T00:29:01.420Z,2.40
2023-01-23T00:31:33.490Z,2.35
2023-01-23T00:34:06.369Z,2.42
2023-01-23T00:36:40.250Z,2.36
2023-01-23T00:39:16.666Z,2.44
2023-01-23T00:41:46.704Z,2.27
2023-01-23T00:44:15.102Z,2.34
2023-01-23T00:46:43.028Z,2.33
2023-01-23T00:49:10.865Z,2.34
2023-01-23T00:51:38.537Z,2.40
2023-01-23T00:54:06.504Z,2.41
2023-01-23T00:56:34.138Z,2.42
2023-01-23T00:59:02.044Z,2.40
2023-01-23T01:01:32.797Z,2.35
2023-01-23T01:04:01.145Z,2.33
2023-01-23T01:06:30.226Z,2.33
2023-01-23T01:08:59.295Z,2.40
2023-01-23T01:11:27.339Z,2.42
2023-01-23T01:13:55.435Z,2.39
2023-01-23T01:16:24.462Z,2.38
2023-01-23T01:18:52.425Z,2.37
2023-01-23T01:21:20.494Z,2.24
2023-01-23T01:23:48.187Z,2.32
2023-01-23T01:26:15.993Z,2.30
2023-01-23T01:28:43.814Z,2.27
2023-01-23T01:31:14.509Z,2.35
2023-01-23T01:33:43.833Z,2.31
2023-01-23T01:36:19.248Z,2.39
2023-01-23T01:38:48.006Z,2.33
2023-01-23T01:41:17.226Z,2.33
2023-01-23T01:43:45.806Z,2.25
2023-01-23T01:46:24.116Z,2.15
2023-01-23T01:49:30.796Z,2.18
2023-01-23T01:52:06.777Z,2.18
2023-01-23T01:54:48.647Z,2.14
2023-01-23T01:57:20.236Z,2.12
2023-01-23T01:59:57.638Z,2.12
2023-01-23T02:02:37.210Z,2.07
2023-01-23T02:05:10.861Z,2.09
2023-01-23T02:08:03.637Z,2.15
2023-01-23T02:10:36.285Z,2.14
2023-01-23T02:13:32.350Z,2.18
2023-01-23T02:16:05.545Z,2.15
2023-01-23T02:18:36.568Z,2.10
2023-01-23T02:21:07.678Z,2.09
2023-01-23T02:24:14.783Z,2.15
2023-01-23T02:26:44.860Z,2.10
2023-01-23T02:29:15.727Z,2.19
2023-01-23T02:31:53.019Z,2.15
2023-01-23T02:34:22.820Z,2.18
2023-01-23T02:36:51.543Z,2.18
2023-01-23T02:39:21.261Z,2.20
2023-01-23T02:41:54.333Z,2.26
2023-01-23T02:44:31.930Z,2.21
2023-01-23T02:47:12.376Z,2.25
2023-01-23T02:49:42.942Z,2.23
2023-01-23T02:52:11.529Z,2.28
2023-01-23T02:54:40.668Z,2.28
2023-01-23T02:57:09.178Z,2.27
2023-01-23T02:59:55.580Z,2.25
2023-01-23T03:02:24.481Z,2.25
2023-01-23T03:04:52.220Z,2.23
2023-01-23T03:07:20.922Z,2.22
2023-01-23T03:09:48.824Z,2.24
2023-01-23T03:12:16.723Z,2.35
2023-01-23T03:14:44.420Z,2.31
2023-01-23T03:17:14.818Z,2.26
2023-01-23T03:19:42.940Z,2.25
2023-01-23T03:22:10.768Z,2.32
2023-01-23T03:24:40.141Z,2.31
2023-01-23T03:27:08.617Z,2.23
2023-01-23T03:30:02.521Z,2.31
2023-01-23T03:32:30.863Z,2.26
2023-01-23T03:34:59.838Z,2.20
2023-01-23T03:37:27.711Z,2.15
2023-01-23T03:40:15.219Z,2.26
2023-01-23T03:42:43.447Z,2.20
2023-01-23T03:45:14.225Z,2.18
2023-01-23T03:47:42.911Z,2.10
2023-01-23T03:50:10.775Z,1.95
2023-01-23T03:52:40.503Z,1.99
2023-01-23T03:55:09.167Z,2.04
2023-01-23T03:57:37.862Z,1.94
2023-01-23T04:00:20.837Z,1.93
2023-01-23T04:02:55.825Z,2.06
2023-01-23T04:05:23.574Z,1.96
2023-01-23T04:07:51.353Z,1.98
2023-01-23T04:10:19.831Z,1.89
2023-01-23T04:12:53.083Z,1.98
2023-01-23T04:15:20.749Z,1.91
2023-01-23T04:17:48.765Z,1.85
2023-01-23T04:20:16.699Z,1.83
2023-01-23T04:22:44.933Z,1.94
2023-01-23T04:25:12.636Z,1.97
2023-01-23T04:27:40.468Z,1.95
2023-01-23T04:30:10.867Z,1.97
2023-01-23T04:32:38.566Z,1.90
2023-01-23T04:35:06.799Z,1.92
2023-01-23T04:37:37.227Z,1.91
2023-01-23T04:40:05.700Z,1.92
2023-01-23T04:42:43.945Z,1.87
2023-01-23T04:45:21.423Z,1.91
2023-01-23T04:48:25.624Z,1.87
2023-01-23T04:50:54.462Z,1.82
2023-01-23T04:53:22.163Z,1.90
2023-01-23T04:55:57.552Z,1.87
2023-01-23T04:58:26.090Z,1.83
2023-01-23T05:01:04.459Z,1.85
2023-01-23T05:03:35.190Z,1.79
2023-01-23T05:06:03.240Z,1.86
2023-01-23T05:08:31.213Z,1.83
2023-01-23T05:11:14.218Z,1.90
2023-01-23T05:13:42.085Z,1.88
2023-01-23T05:16:10.070Z,1.94
2023-01-23T05:18:57.749Z,1.97
2023-01-23T05:21:25.559Z,1.90
2023-01-23T05:23:53.227Z,1.94
2023-01-23T05:26:22.360Z,2.00
2023-01-23T05:28:50.453Z,2.06
2023-01-23T05:31:18.276Z,2.01
2023-01-23T05:34:01.539Z,2.02
2023-01-23T05:36:29.192Z,1.95
2023-01-23T05:38:57.063Z,2.01
2023-01-23T05:41:28.021Z,1.96
2023-01-23T05:44:13.154Z,1.98
2023-01-23T05:46:54.332Z,1.96
2023-01-23T05:49:22.640Z,2.02
2023-01-23T05:51:51.956Z,2.09
2023-01-23T05:54:19.658Z,2.11
2023-01-23T05:56:48.093Z,2.01
2023-01-23T05:59:34.256Z,2.12
2023-01-23T06:02:20.295Z,2.18
2023-01-23T06:05:06.716Z,2.14
2023-01-23T06:07:54.599Z,2.22
2023-01-23T06:10:22.414Z,2.28
2023-01-23T06:12:51.164Z,2.29
2023-01-23T06:15:19.427Z,2.28
2023-01-23T06:17:48.112Z,2.26
2023-01-23T06:20:16.389Z,2.23
2023-01-23T06:22:46.897Z,2.34
2023-01-23T06:25:15.379Z,2.37
2023-01-23T06:27:43.317Z,2.29
2023-01-23T06:30:12.016Z,2.26
2023-01-23T06:32:45.744Z,2.34
2023-01-23T06:35:17.144Z,2.34
2023-01-23T06:37:45.822Z,2.24
2023-01-23T06:40:17.555Z,2.24
2023-01-23T06:42:56.689Z,2.25
2023-01-23T06:45:24.522Z,2.26
2023-01-23T06:47:53.700Z,2.20
2023-01-23T06:50:22.499Z,2.20
2023-01-23T06:52:50.548Z,2.20
2023-01-23T06:55:19.091Z,2.17
2023-01-23T06:57:47.070Z,2.19
2023-01-23T07:00:15.746Z,2.06
2023-01-23T07:02:45.725Z,2.15
2023-01-23T07:05:14.611Z,2.09
2023-01-23T07:07:46.487Z,2.02
2023-01-23T07:10:14.438Z,2.10
2023-01-23T07:12:42.270Z,2.08
2023-01-23T07:15:11.482Z,2.05
2023-01-23T07:17:41.331Z,2.06
2023-01-23T07:20:12.300Z,2.17
2023-01-23T07:22:50.024Z,2.12
2023-01-23T07:25:17.756Z,2.15
2023-01-23T07:27:45.351Z,2.21
2023-01-23T07:30:13.245Z,2.18
2023-01-23T07:32:41.044Z,2.26
2023-01-23T07:35:09.502Z,2.16
2023-01-23T07:37:37.180Z,2.17
2023-01-23T07:40:05.544Z,2.23
2023-01-23T07:42:33.371Z,2.25
2023-01-23T07:45:01.540Z,2.26
2023-01-23T07:47:29.183Z,2.23
2023-01-23T07:49:56.851Z,2.27
2023-01-23T07:52:24.735Z,2.17
2023-01-23T07:54:52.400Z,2.22
2023-01-23T07:57:20.049Z,2.25
2023-01-23T07:59:48.239Z,2.29
2023-01-23T08:02:15.937Z,2.34
2023-01-23T08:04:43.646Z,2.37
2023-01-23T08:07:11.319Z,2.38
2023-01-23T08:09:38.928Z,2.35
2023-01-23T08:12:07.128Z,2.34
2023-01-23T08:14:34.746Z,2.36
2023-01-23T08:17:02.503Z,2.34
2023-01-23T08:19:30.137Z,2.35
2023-01-23T08:21:57.852Z,2.33
2023-01-23T08:24:25.463Z,2.39
2023-01-23T08:26:53.123Z,2.39
2023-01-23T08:29:20.890Z,2.39
2023-01-23T08:31:48.616Z,2.43
2023-01-23T08:34:16.244Z,2.42
2023-01-23T08:36:43.856Z,2.39
2023-01-23T08:39:11.440Z,2.44
2023-01-23T08:41:39.096Z,2.46
2023-01-23T08:44:06.718Z,2.41
2023-01-23T08:46:34.513Z,2.46
2023-01-23T08:49:02.198Z,2.47
2023-01-23T08:51:30.028Z,2.53
2023-01-23T08:53:58.206Z,2.55
2023-01-23T08:56:26.484Z,2.54
2023-01-23T08:58:54.275Z,2.49
2023-01-23T09:01:25.466Z,2.52
2023-01-23T09:03:53.813Z,2.53
2023-01-23T09:06:23.117Z,2.60
2023-01-23T09:08:51.360Z,2.63
2023-01-23T09:11:19.857Z,2.61
2023-01-23T09:13:47.635Z,2.66
2023-01-23T09:16:15.956Z,2.64
2023-01-23T09:18:43.619Z,2.71
2023-01-23T09:21:14.890Z,2.69
2023-01-23T09:23:42.817Z,2.71
2023-01-23T09:26:14.154Z,2.81
2023-01-23T09:28:43.198Z,2.77
2023-01-23T09:31:13.666Z,2.73
2023-01-23T09:33:42.131Z,2.89
2023-01-23T09:36:10.748Z,2.86
2023-01-23T09:38:38.445Z,2.89
2023-01-23T09:41:19.876Z,2.94
2023-01-23T09:43:59.826Z,2.96
2023-01-23T09:47:09.930Z,2.99
2023-01-23T09:50:00.362Z,2.99
2023-01-23T09:52:36.364Z,2.97
2023-01-23T09:55:05.026Z,2.95
2023-01-23T09:57:45.400Z,2.94
2023-01-23T10:00:21.086Z,3.00
2023-01-23T10:02:48.990Z,3.10
2023-01-23T10:05:19.119Z,3.12
2023-01-23T10:08:28.733Z,3.07
2023-01-23T10:11:10.918Z,3.08
2023-01-23T10:14:23.130Z,3.16
2023-01-23T10:17:15.130Z,3.19
2023-01-23T10:20:20.619Z,3.23
2023-01-23T10:23:35.985Z,3.23
2023-01-23T10:26:04.788Z,3.16
2023-01-23T10:28:38.956Z,3.28
2023-01-23T10:31:26.342Z,3.27
2023-01-23T10:34:17.577Z,3.32
2023-01-23T10:37:02.749Z,3.32
2023-01-23T10:39:41.614Z,3.41
2023-01-23T10:42:13.023Z,3.50
2023-01-23T10:44:40.767Z,3.52
2023-01-23T10:47:52.045Z,3.52
2023-01-23T10:50:40.584Z,3.48
2023-01-23T10:53:19.745Z,3.42
2023-01-23T10:55:48.369Z,3.55
2023-01-23T10:58:40.965Z,3.54
2023-01-23T11:01:30.147Z,3.63
2023-01-23T11:04:09.715Z,3.51
2023-01-23T11:06:37.714Z,3.49
2023-01-23T11:09:20.187Z,3.51
2023-01-23T11:12:01.820Z,3.64
2023-01-23T11:14:29.941Z,3.72
2023-01-23T11:17:06.884Z,3.81
2023-01-23T11:19:37.329Z,3.92
2023-01-23T11:22:07.423Z,3.87
2023-01-23T11:24:41.017Z,3.99
2023-01-23T11:27:15.262Z,4.01
2023-01-23T11:30:25.610Z,3.95
2023-01-23T11:33:31.079Z,4.01
2023-01-23T11:36:16.988Z,4.04
2023-01-23T11:39:44.703Z,4.12
2023-01-23T11:42:14.031Z,4.08
2023-01-23T11:44:46.397Z,4.03
2023-01-23T11:47:33.015Z,4.05
2023-01-23T11:50:30.420Z,3.90
2023-01-23T11:53:10.401Z,3.92
2023-01-23T11:56:15.301Z,4.04
2023-01-23T11:59:34.030Z,4.20
2023-01-23T12:02:34.240Z,4.24
2023-01-23T12:05:43.574Z,4.39
2023-01-23T12:08:26.280Z,4.30
2023-01-23T12:11:01.297Z,4.47
2023-01-23T12:13:42.169Z,4.51
2023-01-23T12:16:20.684Z,4.64
2023-01-23T12:19:11.360Z,4.77
2023-01-23T12:22:14.408Z,4.73
2023-01-23T12:25:19.905Z,4.57
2023-01-23T12:27:50.734Z,4.47
2023-01-23T12:30:55.627Z,4.36
2023-01-23T12:34:08.138Z,4.31
2023-01-23T12:37:29.115Z,4.34
2023-01-23T12:40:41.820Z,4.32
2023-01-23T12:43:38.428Z,4.24
2023-01-23T12:46:15.677Z,4.27
2023-01-23T12:49:22.325Z,4.33
2023-01-23T12:52:03.679Z,3.88
2023-01-23T12:54:51.260Z,4.10
2023-01-23T12:57:52.546Z,4.29
2023-01-23T13:00:53.180Z,4.41
2023-01-23T13:03:46.599Z,4.48
2023-01-23T13:06:47.496Z,4.47
2023-01-23T13:09:42.205Z,4.32
2023-01-23T13:12:26.501Z,4.44
2023-01-23T13:15:38.803Z,4.33
2023-01-23T13:18:27.799Z,4.33
2023-01-23T13:21:18.992Z,4.29
2023-01-23T13:23:46.757Z,4.28
2023-01-23T13:26:19.425Z,4.25
2023-01-23T13:28:48.937Z,4.25
2023-01-23T13:31:40.180Z,4.27
2023-01-23T13:34:17.449Z,4.32
2023-01-23T13:36:50.892Z,4.42
2023-01-23T13:39:19.713Z,4.42
2023-01-23T13:42:16.167Z,4.36
2023-01-23T13:45:24.497Z,4.53
2023-01-23T14:20:24.481Z,4.33
2023-01-23T14:22:55.511Z,4.43
2023-01-23T14:25:23.702Z,4.40
2023-01-23T14:28:04.046Z,4.34
2023-01-23T14:30:31.837Z,4.29
2023-01-23T14:32:59.551Z,4.36
2023-01-23T14:35:33.378Z,4.31
2023-01-23T14:38:05.691Z,4.32
2023-01-23T14:40:49.036Z,4.39
2023-01-23T14:43:23.235Z,4.32
2023-01-23T14:46:03.099Z,4.17
2023-01-23T14:48:36.602Z,4.15
2023-01-23T14:51:26.339Z,4.07
2023-01-23T14:53:58.766Z,4.14
2023-01-23T14:56:37.127Z,4.07
2023-01-23T14:59:08.607Z,4.03
2023-01-23T15:01:36.556Z,3.94
2023-01-23T15:04:07.749Z,3.91
2023-01-23T15:06:36.630Z,3.85
2023-01-23T15:09:16.327Z,3.89
2023-01-23T15:11:45.435Z,3.91
2023-01-23T15:14:37.338Z,4.00
2023-01-23T15:17:19.089Z,3.95
2023-01-23T15:19:59.554Z,3.84
2023-01-23T15:22:32.764Z,3.93
2023-01-23T15:25:32.756Z,3.93
2023-01-23T15:28:00.605Z,3.82
2023-01-23T15:30:42.632Z,3.84
2023-01-23T15:33:32.015Z,3.72
2023-01-23T15:36:27.300Z,3.71
2023-01-23T15:38:57.765Z,3.70
2023-01-23T15:42:11.000Z,3.64
2023-01-23T15:44:40.523Z,3.55
2023-01-23T15:47:08.749Z,3.76
2023-01-23T15:49:40.416Z,3.74
2023-01-23T15:52:28.790Z,3.66
2023-01-23T15:55:03.888Z,3.57
2023-01-23T15:57:31.557Z,3.47
2023-01-23T16:00:00.298Z,3.38
2023-01-23T16:02:31.539Z,3.29
2023-01-23T16:05:01.881Z,3.18
2023-01-23T16:07:34.509Z,3.29
2023-01-23T16:10:25.491Z,3.11
2023-01-23T16:12:55.828Z,3.27
2023-01-23T16:15:29.730Z,3.27
2023-01-23T16:17:57.649Z,3.27
2023-01-23T16:20:38.617Z,3.27
2023-01-23T16:23:21.938Z,3.23
2023-01-23T16:25:50.321Z,3.30
2023-01-23T16:28:24.139Z,3.20
2023-01-23T16:30:52.641Z,3.28
2023-01-23T16:33:21.259Z,3.31
2023-01-23T16:35:50.953Z,3.31
2023-01-23T16:38:25.384Z,3.42
2023-01-23T16:40:54.616Z,3.35
2023-01-23T16:43:23.209Z,3.47
2023-01-23T16:45:54.284Z,3.49
2023-01-23T16:48:27.163Z,3.51
2023-01-23T16:51:24.335Z,3.48
2023-01-23T16:54:00.696Z,3.40
2023-01-23T16:56:40.985Z,3.36
2023-01-23T16:59:17.772Z,3.41
2023-01-23T17:01:48.764Z,3.33
2023-01-23T17:04:20.901Z,3.44
2023-01-23T17:06:49.311Z,3.46
2023-01-23T17:09:17.749Z,3.48
2023-01-23T17:11:55.267Z,3.36
2023-01-23T17:14:32.511Z,3.45
2023-01-23T17:17:10.097Z,3.41
2023-01-23T17:19:41.796Z,3.51
2023-01-23T17:22:24.165Z,3.57
2023-01-23T17:24:52.034Z,3.47
2023-01-23T17:27:19.972Z,3.57
2023-01-23T17:29:49.174Z,3.61
2023-01-23T17:32:37.522Z,3.52
2023-01-23T17:35:08.951Z,3.64
2023-01-23T17:37:36.815Z,3.63
2023-01-23T17:40:05.038Z,3.64
2023-01-23T17:42:32.845Z,3.60
2023-01-23T17:45:00.638Z,3.47
2023-01-23T17:47:28.888Z,3.68
2023-01-23T17:49:57.154Z,3.61
2023-01-23T17:52:26.720Z,3.68
2023-01-23T17:54:54.629Z,3.76
2023-01-23T17:57:22.609Z,3.79
2023-01-23T17:59:50.371Z,3.74
2023-01-23T18:02:27.232Z,3.69
2023-01-23T18:04:55.582Z,3.76
2023-01-23T18:07:23.807Z,3.76
2023-01-23T18:09:52.590Z,3.70
2023-01-23T18:12:35.013Z,3.82
2023-01-23T18:15:20.932Z,3.74
2023-01-23T18:18:00.461Z,3.61
2023-01-23T18:20:28.809Z,3.75
2023-01-23T18:22:57.652Z,3.67
2023-01-23T18:25:26.537Z,3.67
2023-01-23T18:27:57.243Z,3.74
2023-01-23T18:30:50.399Z,3.62
2023-01-23T18:34:01.509Z,3.75
2023-01-23T18:36:47.453Z,3.76
2023-01-23T18:40:03.503Z,3.79
2023-01-23T18:42:49.707Z,3.69
2023-01-23T18:45:26.516Z,3.58
2023-01-23T18:47:56.123Z,3.65
2023-01-23T18:50:26.939Z,3.70
2023-01-23T18:53:16.648Z,3.70
2023-01-23T18:55:56.746Z,3.75
2023-01-23T18:59:06.216Z,3.76
2023-01-23T19:01:52.356Z,3.73
2023-01-23T19:04:34.569Z,3.57
2023-01-23T19:07:03.211Z,3.67
2023-01-23T19:09:34.619Z,3.65
2023-01-23T19:12:34.410Z,3.57
2023-01-23T19:15:19.471Z,3.67
2023-01-23T19:18:06.805Z,3.71
2023-01-23T19:21:03.335Z,3.49
2023-01-23T19:23:59.894Z,3.61
2023-01-23T19:26:39.909Z,3.50
2023-01-23T19:29:26.089Z,3.46
2023-01-23T19:32:09.697Z,3.53
2023-01-23T19:34:37.627Z,3.53
2023-01-23T19:37:07.311Z,3.41
2023-01-23T19:39:35.358Z,3.54
2023-01-23T19:42:03.466Z,3.54
2023-01-23T19:44:31.190Z,3.58
2023-01-23T19:46:59.122Z,3.55
2023-01-23T19:49:26.819Z,3.58
2023-01-23T19:51:54.651Z,3.58
2023-01-23T19:54:24.317Z,3.59
2023-01-23T19:56:52.564Z,3.61
2023-01-23T19:59:21.099Z,3.60
2023-01-23T20:01:52.079Z,3.59
2023-01-23T20:04:23.485Z,3.60
2023-01-23T20:06:52.473Z,3.61
2023-01-23T20:09:20.873Z,3.62
2023-01-23T20:11:49.190Z,3.67
2023-01-23T20:14:16.928Z,3.67
2023-01-23T20:16:44.743Z,3.64
2023-01-23T20:19:16.568Z,3.69
2023-01-23T20:21:47.631Z,3.55
2023-01-23T20:24:16.369Z,3.62
2023-01-23T20:26:46.574Z,3.67
2023-01-23T20:29:14.437Z,3.67
2023-01-23T20:31:42.519Z,3.65
2023-01-23T20:34:10.264Z,3.68
2023-01-23T20:36:38.155Z,3.69
2023-01-23T20:39:06.213Z,3.57
2023-01-23T20:41:34.607Z,3.64
2023-01-23T20:44:03.075Z,3.48
2023-01-23T20:46:31.022Z,3.46
2023-01-23T20:48:59.657Z,3.34
2023-01-23T20:51:27.547Z,3.42
2023-01-23T20:53:55.501Z,3.37
2023-01-23T20:56:27.774Z,3.40
2023-01-23T20:59:15.377Z,3.37
2023-01-23T21:02:03.778Z,3.29
2023-01-23T21:04:35.256Z,3.26
2023-01-23T21:07:04.595Z,3.32
2023-01-23T21:09:32.470Z,3.37
2023-01-23T21:12:00.352Z,3.28
2023-01-23T21:14:28.270Z,3.17
2023-01-23T21:16:55.965Z,2.92
2023-01-23T21:19:24.057Z,3.22
2023-01-23T21:21:51.736Z,3.17
2023-01-23T21:24:19.560Z,3.11
2023-01-23T21:26:47.239Z,3.14
2023-01-23T21:29:14.991Z,3.16
2023-01-23T21:31:42.996Z,3.22
2023-01-23T21:34:15.016Z,3.20
2023-01-23T21:36:43.146Z,3.19
2023-01-23T21:39:14.305Z,3.15
2023-01-23T21:41:42.240Z,3.22
2023-01-23T21:44:11.227Z,3.25
2023-01-23T21:46:39.409Z,3.23
2023-01-23T21:49:07.432Z,3.22
2023-01-23T21:51:35.195Z,3.20
2023-01-23T21:54:02.957Z,3.28
2023-01-23T21:56:30.994Z,3.26
2023-01-23T21:58:59.010Z,3.29
2023-01-23T22:01:33.871Z,3.30
2023-01-23T22:04:23.993Z,3.18
2023-01-23T22:06:58.515Z,3.34
2023-01-23T22:09:27.265Z,3.26
2023-01-23T22:11:55.779Z,3.29
2023-01-23T22:14:24.061Z,3.20
2023-01-23T22:16:51.825Z,3.35
2023-01-23T22:19:24.979Z,3.32
2023-01-23T22:21:57.282Z,3.33
2023-01-23T22:24:25.163Z,3.30
2023-01-23T22:26:52.853Z,3.31
2023-01-23T22:29:20.595Z,3.32
2023-01-23T22:31:48.364Z,3.15
2023-01-23T22:34:16.201Z,3.22
2023-01-23T22:36:43.872Z,3.26
2023-01-23T22:39:19.149Z,3.25
2023-01-23T22:41:50.050Z,3.26
2023-01-23T22:44:18.234Z,3.23
2023-01-23T22:46:46.234Z,3.22
2023-01-23T22:49:13.907Z,3.28
2023-01-23T22:51:41.825Z,3.28
2023-01-23T22:54:09.647Z,3.31
2023-01-23T22:56:37.803Z,3.30
2023-01-23T22:59:05.730Z,3.31
2023-01-23T23:01:33.475Z,3.32
2023-01-23T23:04:01.265Z,3.37
2023-01-23T23:06:29.392Z,3.38
2023-01-23T23:08:57.136Z,3.32
2023-01-23T23:11:27.549Z,3.33
2023-01-23T23:13:57.139Z,3.26
2023-01-23T23:16:31.536Z,3.09
2023-01-23T23:19:04.216Z,3.23
2023-01-23T23:21:37.156Z,3.17
2023-01-23T23:24:08.032Z,3.31
2023-01-23T23:26:36.129Z,3.32
2023-01-23T23:29:04.804Z,3.29
2023-01-23T23:31:33.057Z,3.29
2023-01-23T23:34:01.095Z,3.24
2023-01-23T23:36:28.989Z,3.17
2023-01-23T23:38:56.906Z,3.18
2023-01-23T23:41:24.746Z,3.26
2023-01-23T23:43:52.699Z,3.27
2023-01-23T23:46:20.363Z,3.28
2023-01-23T23:48:48.189Z,3.23
2023-01-23T23:51:18.641Z,3.17
2023-01-23T23:53:46.846Z,3.34
2023-01-23T23:56:23.585Z,3.20
2023-01-23T23:58:51.502Z,3.23
